Flight Track Log - Related Links

Times and Time Zones

All times are in EDT time to prevent confusion due to time zone crossing. See the GLA38K flight status page for this flight to view local times or setup timezone preferences in your user account.

Time Position Orientation Groundspeed Altitude Reporting Facility
EDT Latitude Longitude Course Direction KTS MPH feet Rate Location/Type
Thu 12:16:00 AM 47.0736 -102.9635 333° Northwest  Level FlightAware
Thu 12:17:00 AM 47.1305 -103.0003 339° North  Level FlightAware
Thu 12:17:19 AM 46.8669 -102.7883 329° Northwest 216 249 7,000  Level Minneapolis Center
Thu 12:18:00 AM 47.1889 -103.0326 339° North  Level FlightAware
Thu 12:18:19 AM 46.9206 -102.8289 333° Northwest 217 250 8,900  Level Minneapolis Center
Thu 12:19:00 AM 47.2472 -103.0651 339° North  Level FlightAware
Thu 12:19:20 AM 46.9858 -102.8658 339° North 213 245 11,200  Level Minneapolis Center
Thu 12:20:00 AM 47.3041 -103.1027 336° Northwest  Level FlightAware
Thu 12:20:21 AM 47.0403 -102.8967 339° North 210 242 12,000  Level Minneapolis Center
Thu 12:21:00 AM 47.3609 -103.1406 336° Northwest  Level FlightAware
Thu 12:21:22 AM 47.0981 -102.9297 339° North 215 247 12,000  Level Minneapolis Center
Thu 12:22:22 AM 47.1583 -102.9683 336° Northwest 226 260 12,000  Level Minneapolis Center
Thu 12:23:23 AM 47.2208 -103.0075 337° Northwest 235 270 12,000  Level Minneapolis Center
Thu 12:24:24 AM 47.2828 -103.0469 337° Northwest 240 276 12,000  Level Minneapolis Center
Thu 12:25:25 AM 47.3453 -103.0867 337° Northwest 243 280 12,000  Level Minneapolis Center
Thu 12:26:25 AM 47.3956 -103.1178 337° Northwest 244 281 12,000  Level Minneapolis Center
Thu 12:27:27 AM 47.4683 -103.1647 336° Northwest 244 281 12,000  Level Salt Center
Thu 12:28:28 AM 47.5300 -103.2050 336° Northwest 244 281 12,000  Level Salt Center
Thu 12:29:29 AM 47.5917 -103.2492 334° Northwest 245 282 12,000  Level Salt Center
Thu 12:30:31 AM 47.6664 -103.3014 335° Northwest 248 285 12,000  Level Salt Center
Thu 12:31:32 AM 47.7267 -103.3494 332° Northwest 248 285 12,000 -393 Level Salt Center
Thu 12:32:33 AM 47.7878 -103.3986 332° Northwest 250 288 11,200 -1,082 Descending Salt Center
Thu 12:33:34 AM 47.8497 -103.4469 332° Northwest 252 290 9,800 -1,475 Descending Salt Center
Thu 12:34:35 AM 47.9094 -103.4964 331° Northwest 251 289 8,200 -1,574 Descending Salt Center

Login

Don't have an account? Register now (free) for customized features, flight alerts, and more!